Airfield :
LOGIN :

Register | Disclaimer

   EN    FR    IT 

 










Legend :    VFR   Marginal VFR   IFR   Intensive IFR   Very Intensive IFR
Visi :
Ceiling :
>= 8 km
>= 3000ft
5 to 8 km
1000 to 3000 ft
1500m to 5 km
500 to 1000 ft
800 to 1500m
200 to 500 ft
< 800m
< 200 ft
Symbols :   Thunderstorms  Fog  Heavy snow  Heavy precipitations  Wind > 20 kt
SIGMETs :     Misc.  Thunderstorms  Icing  Turbulence  Mountain Waves  Volcanic Ashes







- Airport Elevation : 463 ft
- IATA code : SZY
- AIRPORT CLOSED.


EPSY - Szczytno

CURRENT METAR :
  • 221700Z 25005KT 3500 -RA BR SCT005 BKN024 08/07 Q1020

EXPIRED METARs :
  • 221630Z 26004KT 230V300 2800 -RA BR FEW003 BKN006 OVC013 08/07 Q1020
  • 221600Z 25004KT 2600 -RA BR SCT005 OVC011 08/07 Q1020
  • 221530Z 24005KT 3300 -RA BR FEW006 OVC010 08/07 Q1020
  • 221500Z 24007KT 220V300 3600 -RA BR SCT010 OVC015 08/07 Q1020
  • 221430Z 24008KT 9999 BKN014 OVC020 09/06 Q1020

TAF AMD TAF EPSY
Valid from the 22 at 15:00 until the 23 at 00:00 UTC


221533Z 2215/2224 26008KT 9999 BKN015
BECMG 2215/2217 2000 -RA BR BKN005 BKN010
BECMG 2221/2223 CAVOK
No reported NOTAMs for that airfield.
1 SIGMET reported for the Warszawa FIR (EPWW) :
 
Severe turbulence
EPWW SIGMET 1 VALID 221630/221830 EPWA
EPWW WARSAW FIR SEV TURB FCST NW OF LINE N5550 E01730 - N5200 E01440 FL250/350 MOV SE NC=



MET'MAP, your aeronautical weather chart ! - Copyright ORBIFLY December 2007 - Disclaimer

ORBIFLY MET'MAP TEAM :

Programming & Development : Alexandra Zaïnal
Concept & Development : Baudouin d'Aumeries
Co-Development & Prog : Marc-Olivier Méhu
Technical & hardware support : Manuel Goepfert

Contact : metmap@orbifly.com




SOURCES & CREDITS :

   NOAA